createdAt,value
2022-12-11T00:04:14.582Z,99727.88
2022-12-11T00:09:15.364Z,99730.31
2022-12-11T00:14:17.534Z,99733.84
2022-12-11T00:19:18.445Z,99739.09
2022-12-11T00:24:20.282Z,99745.13
2022-12-11T00:29:22.434Z,99747.66
2022-12-11T00:34:24.391Z,99744.91
2022-12-11T00:39:25.207Z,99738.69
2022-12-11T00:44:27.347Z,99738.69
2022-12-11T00:49:28.223Z,99735.09
2022-12-11T00:54:29.028Z,99737.03
2022-12-11T00:59:31.171Z,99736.13
2022-12-11T01:04:32.002Z,99742.16
2022-12-11T01:09:52.425Z,99739.50
2022-12-11T01:14:54.622Z,99742.75
2022-12-11T01:19:56.181Z,99744.69
2022-12-11T01:24:56.996Z,99749.66
2022-12-11T01:29:59.206Z,99749.22
2022-12-11T01:35:00.003Z,99749.38
2022-12-11T01:40:01.591Z,99758.00
2022-12-11T01:45:29.223Z,99752.72
2022-12-11T01:50:32.615Z,99758.59
2022-12-11T01:55:34.328Z,99755.94
2022-12-11T02:00:36.542Z,99754.06
2022-12-11T02:05:38.023Z,99752.47
2022-12-11T02:10:55.499Z,99750.91
2022-12-11T02:16:06.439Z,99754.09
2022-12-11T02:21:14.324Z,99749.00
2022-12-11T02:26:33.087Z,99747.28
2022-12-11T02:31:39.766Z,99739.41
2022-12-11T02:36:44.940Z,99737.56
2022-12-11T02:41:49.860Z,99740.25
2022-12-11T02:46:53.421Z,99736.22
2022-12-11T02:51:55.751Z,99742.97
2022-12-11T02:57:04.768Z,99743.94
2022-12-11T03:02:07.622Z,99731.97
2022-12-11T03:07:13.117Z,99738.34
2022-12-11T03:12:19.225Z,99737.56
2022-12-11T03:17:23.918Z,99742.25
2022-12-11T03:22:33.713Z,99738.19
2022-12-11T03:27:39.401Z,99738.22
2022-12-11T03:32:47.643Z,99745.13
2022-12-11T03:37:52.292Z,99744.34
2022-12-11T03:42:57.571Z,99752.31
2022-12-11T03:48:03.566Z,99749.31
2022-12-11T03:53:05.910Z,99749.56
2022-12-11T03:58:06.854Z,99750.13
2022-12-11T04:03:15.894Z,99744.13
2022-12-11T04:08:17.314Z,99744.13
2022-12-11T04:13:18.117Z,99747.78
2022-12-11T04:18:37.895Z,99753.00
2022-12-11T04:23:56.602Z,99753.97
2022-12-11T04:28:57.354Z,99751.09
2022-12-11T04:33:59.579Z,99760.66
2022-12-11T04:39:00.453Z,99750.28
2022-12-11T04:44:01.400Z,99742.00
2022-12-11T04:49:03.604Z,99736.91
2022-12-11T04:54:04.527Z,99736.56
2022-12-11T04:59:05.335Z,99744.44
2022-12-11T05:04:07.859Z,99734.28
2022-12-11T05:09:12.414Z,99734.28
2022-12-11T05:14:13.500Z,99720.56
2022-12-11T05:19:15.706Z,99724.06
2022-12-11T05:24:16.491Z,99718.25
2022-12-11T05:29:17.271Z,99719.84
2022-12-11T05:34:19.519Z,99713.03
2022-12-11T05:39:20.702Z,99715.41
2022-12-11T05:44:21.529Z,99714.22
2022-12-11T05:49:29.120Z,99701.88
2022-12-11T05:54:31.714Z,99712.84
2022-12-11T05:59:32.548Z,99705.09
2022-12-11T06:04:34.901Z,99701.84
2022-12-11T06:09:35.762Z,99701.69
2022-12-11T06:14:36.531Z,99708.53
2022-12-11T06:19:38.841Z,99706.47
2022-12-11T06:24:39.764Z,99720.00
2022-12-11T06:29:40.891Z,99718.19
2022-12-11T06:34:44.527Z,99716.22
2022-12-11T06:39:45.496Z,99718.03
2022-12-11T06:44:46.597Z,99716.22
2022-12-11T06:49:48.750Z,99716.88
2022-12-11T06:54:49.846Z,99732.16
2022-12-11T06:59:50.871Z,99729.59
2022-12-11T07:04:55.274Z,99735.63
2022-12-11T07:09:56.304Z,99740.06
2022-12-11T07:14:57.141Z,99746.19
2022-12-11T07:19:59.482Z,99740.78
2022-12-11T07:25:00.448Z,99750.06
2022-12-11T07:30:01.364Z,99746.19
2022-12-11T07:35:03.790Z,99743.25
2022-12-11T07:40:05.055Z,99761.06
2022-12-11T07:45:07.208Z,99757.25
2022-12-11T07:50:10.230Z,99762.47
2022-12-11T07:55:11.498Z,99761.78
2022-12-11T08:00:13.162Z,99765.16
2022-12-11T08:05:15.298Z,99770.91
2022-12-11T08:10:16.127Z,99773.47
2022-12-11T08:15:16.995Z,99766.69
2022-12-11T08:20:19.204Z,99760.03
2022-12-11T08:25:20.014Z,99777.00
2022-12-11T08:30:20.828Z,99760.66
2022-12-11T08:35:22.943Z,99759.97
2022-12-11T08:40:23.773Z,99755.09
2022-12-11T08:45:24.632Z,99761.97
2022-12-11T08:50:26.953Z,99748.31
2022-12-11T08:55:27.777Z,99754.97
2022-12-11T09:00:28.720Z,99761.97
2022-12-11T09:05:31.247Z,99756.34
2022-12-11T09:10:32.029Z,99758.09
2022-12-11T09:15:32.882Z,99762.56
2022-12-11T09:20:35.273Z,99768.50
2022-12-11T09:25:36.092Z,99759.47
2022-12-11T09:30:36.967Z,99750.41
2022-12-11T09:35:39.425Z,99759.38
2022-12-11T09:40:43.917Z,99750.84
2022-12-11T09:45:44.765Z,99757.53
2022-12-11T09:50:48.895Z,99749.19
2022-12-11T09:55:56.096Z,99744.94
2022-12-11T10:01:00.808Z,99746.00
2022-12-11T10:06:13.034Z,99750.28
2022-12-11T10:11:35.819Z,99744.09
2022-12-11T10:16:40.244Z,99734.97
2022-12-11T10:21:44.129Z,99724.38
2022-12-11T10:26:46.377Z,99711.94
2022-12-11T10:31:54.612Z,99714.84
2022-12-11T10:37:00.398Z,99710.56
2022-12-11T10:42:04.820Z,99720.66
2022-12-11T10:47:08.321Z,99716.25
2022-12-11T10:52:13.991Z,99708.81
2022-12-11T10:57:16.316Z,99702.94
2022-12-11T11:02:24.166Z,99692.19
2022-12-11T11:07:27.688Z,99684.91
2022-12-11T11:12:29.119Z,99677.88
2022-12-11T11:17:35.123Z,99684.19
2022-12-11T11:22:42.455Z,99674.34
2022-12-11T11:27:46.835Z,99681.16
2022-12-11T11:32:47.693Z,99674.34
2022-12-11T11:37:57.875Z,99666.63
2022-12-11T11:43:14.124Z,99672.41
2022-12-11T11:48:29.627Z,99654.53
2022-12-11T11:53:37.421Z,99646.53
2022-12-11T11:58:42.832Z,99641.53
2022-12-11T12:03:43.708Z,99639.16
2022-12-11T12:08:55.825Z,99636.59
2022-12-11T12:14:22.749Z,99640.72
2022-12-11T12:19:44.393Z,99627.59
2022-12-11T12:24:57.824Z,99629.34
2022-12-11T12:30:04.917Z,99639.81
2022-12-11T12:35:17.466Z,99637.59
2022-12-11T12:40:29.466Z,99635.75
2022-12-11T12:45:37.329Z,99627.34
2022-12-11T12:50:41.786Z,99630.72
2022-12-11T12:55:45.809Z,99618.91
2022-12-11T13:00:46.753Z,99621.34
2022-12-11T13:05:59.150Z,99604.94
2022-12-11T13:11:04.509Z,99610.38
2022-12-11T13:16:24.682Z,99609.16
2022-12-11T13:21:29.512Z,99607.50
2022-12-11T13:26:34.353Z,99603.22
2022-12-11T13:31:39.742Z,99611.16
2022-12-11T13:36:42.114Z,99600.88
2022-12-11T13:41:47.779Z,99612.06
2022-12-11T13:46:49.755Z,99612.44
2022-12-11T13:51:56.237Z,99615.94
2022-12-11T13:57:01.628Z,99622.38
2022-12-11T14:02:07.328Z,99621.53
2022-12-11T14:07:10.048Z,99615.31
2022-12-11T14:12:18.621Z,99623.03
2022-12-11T14:17:26.868Z,99616.78
2022-12-11T14:22:30.050Z,99627.59
2022-12-11T14:27:32.261Z,99632.59
2022-12-11T14:32:37.108Z,99620.59
2022-12-11T14:37:38.376Z,99624.06
2022-12-11T14:42:45.832Z,99627.53
2022-12-11T14:47:46.799Z,99634.97
2022-12-11T14:52:51.966Z,99636.72
2022-12-11T14:57:57.619Z,99635.69
2022-12-11T15:03:01.291Z,99637.25
2022-12-11T15:08:04.213Z,99634.56
2022-12-11T15:13:07.241Z,99645.72
2022-12-11T15:18:15.231Z,99647.56
2022-12-11T15:23:18.764Z,99635.84
2022-12-11T15:28:33.263Z,99646.91
2022-12-11T15:33:34.857Z,99640.22
2022-12-11T15:38:40.761Z,99640.28
2022-12-11T15:43:43.704Z,99636.75
2022-12-11T15:48:44.579Z,99632.50
2022-12-11T15:53:45.429Z,99631.66
2022-12-11T15:58:49.379Z,99635.72
2022-12-11T16:03:51.374Z,99640.84
2022-12-11T16:08:52.183Z,99645.09
2022-12-11T16:13:55.402Z,99650.88
2022-12-11T16:18:56.231Z,99650.00
2022-12-11T16:24:00.258Z,99655.13
2022-12-11T16:29:02.821Z,99644.44
2022-12-11T16:34:04.143Z,99650.38
2022-12-11T16:39:05.100Z,99652.06
2022-12-11T16:44:07.923Z,99646.84
2022-12-11T16:49:08.801Z,99642.38
2022-12-11T16:54:10.003Z,99640.69
2022-12-11T16:59:12.949Z,99650.97
2022-12-11T17:04:13.937Z,99650.16
2022-12-11T17:09:14.852Z,99646.91
2022-12-11T17:14:17.144Z,99654.72
2022-12-11T17:19:18.677Z,99656.28
2022-12-11T17:24:19.603Z,99650.41
2022-12-11T17:29:22.059Z,99660.66
2022-12-11T17:34:22.862Z,99649.53
2022-12-11T17:39:24.800Z,99658.03
2022-12-11T17:44:30.468Z,99657.84
2022-12-11T17:49:31.382Z,99652.94
2022-12-11T17:54:32.232Z,99661.41
2022-12-11T17:59:34.441Z,99661.91
2022-12-11T18:04:35.367Z,99657.63
2022-12-11T18:09:36.164Z,99653.38
2022-12-11T18:14:39.073Z,99652.63
2022-12-11T18:19:45.741Z,99651.13
2022-12-11T18:24:47.097Z,99660.84
2022-12-11T18:29:49.257Z,99668.25
2022-12-11T18:34:50.167Z,99668.28
2022-12-11T18:39:51.117Z,99661.44
2022-12-11T18:44:53.280Z,99660.41
2022-12-11T18:49:54.503Z,99651.78
2022-12-11T18:54:55.391Z,99650.19
2022-12-11T19:00:02.351Z,99640.84
2022-12-11T19:05:05.757Z,99629.00
2022-12-11T19:10:08.551Z,99633.13
2022-12-11T19:15:12.281Z,99634.97
2022-12-11T19:20:40.472Z,99645.88
2022-12-11T19:25:34.902Z,99647.56
2022-12-11T19:30:37.535Z,99645.25
2022-12-11T19:35:39.568Z,99643.28
2022-12-11T19:40:41.611Z,99645.69
2022-12-11T19:45:45.824Z,99655.97
2022-12-11T19:50:46.969Z,99653.38
2022-12-11T19:55:50.752Z,99646.16
2022-12-11T20:00:53.052Z,99643.91
2022-12-11T20:06:01.486Z,99641.31
2022-12-11T20:11:06.055Z,99645.72
2022-12-11T20:16:12.811Z,99636.38
2022-12-11T20:21:15.586Z,99651.72
2022-12-11T20:26:18.761Z,99643.13
2022-12-11T20:31:23.277Z,99641.47
2022-12-11T20:36:25.394Z,99648.34
2022-12-11T20:41:27.568Z,99643.84
2022-12-11T20:46:29.757Z,99632.75
2022-12-11T20:51:32.579Z,99641.97
2022-12-11T20:56:33.424Z,99652.38
2022-12-11T21:01:35.914Z,99650.72
2022-12-11T21:06:38.782Z,99645.59
2022-12-11T21:11:39.727Z,99641.25
2022-12-11T21:16:42.309Z,99634.13
2022-12-11T21:21:45.202Z,99631.56
2022-12-11T21:26:46.639Z,99631.59
2022-12-11T21:31:49.181Z,99630.84
2022-12-11T21:36:55.033Z,99636.91
2022-12-11T21:42:00.905Z,99628.09
2022-12-11T21:47:03.316Z,99621.31
2022-12-11T21:52:04.696Z,99619.69
2022-12-11T21:57:06.247Z,99615.41
2022-12-11T22:02:08.887Z,99614.41
2022-12-11T22:07:09.727Z,99611.19
2022-12-11T22:12:12.551Z,99615.72
2022-12-11T22:17:14.725Z,99616.97
2022-12-11T22:22:16.046Z,99624.16
2022-12-11T22:27:21.985Z,99609.16
2022-12-11T22:32:26.563Z,99609.06
2022-12-11T22:37:27.427Z,99609.75
2022-12-11T22:42:28.516Z,99605.38
2022-12-11T22:47:30.735Z,99610.53
2022-12-11T22:52:31.683Z,99609.63
2022-12-11T22:57:36.902Z,99622.47
2022-12-11T23:02:39.577Z,99614.94
2022-12-11T23:07:40.766Z,99625.84
2022-12-11T23:12:41.820Z,99616.41
2022-12-11T23:17:44.010Z,99628.19
2022-12-11T23:22:44.809Z,99632.75
2022-12-11T23:27:45.852Z,99632.75
2022-12-11T23:32:48.005Z,99630.97
2022-12-11T23:37:48.918Z,99626.69
2022-12-11T23:42:49.709Z,99629.84
2022-12-11T23:47:53.094Z,99625.75
2022-12-11T23:52:53.908Z,99626.72
2022-12-11T23:57:54.934Z,99630.84
